createdAt,value
2023-08-01T00:00:33.406Z,74.63
2023-08-01T00:01:33.456Z,74.52
2023-08-01T00:02:33.380Z,75.84
2023-08-01T00:03:33.396Z,76.84
2023-08-01T00:04:33.322Z,74.83
2023-08-01T00:05:33.345Z,73.92
2023-08-01T00:06:33.324Z,75.84
2023-08-01T00:07:35.789Z,75.23
2023-08-01T00:08:33.319Z,76.24
2023-08-01T00:09:33.243Z,76.54
2023-08-01T00:10:33.233Z,76.75
2023-08-01T00:11:33.218Z,76.54
2023-08-01T00:12:33.221Z,76.71
2023-08-01T00:13:33.212Z,76.20
2023-08-01T00:14:33.200Z,76.31
2023-08-01T00:15:33.151Z,75.90
2023-08-01T00:16:33.190Z,76.20
2023-08-01T00:17:33.228Z,75.80
2023-08-01T00:18:33.127Z,76.31
2023-08-01T00:19:33.171Z,76.61
2023-08-01T00:20:33.098Z,76.51
2023-08-01T00:21:33.093Z,76.51
2023-08-01T00:22:33.056Z,75.40
2023-08-01T00:23:33.071Z,76.20
2023-08-01T00:24:33.064Z,76.51
2023-08-01T00:25:33.056Z,76.81
2023-08-01T00:26:33.020Z,76.91
2023-08-01T00:27:40.390Z,77.42
2023-08-01T00:28:33.032Z,77.62
2023-08-01T00:29:32.968Z,77.62
2023-08-01T00:30:32.985Z,77.31
2023-08-01T00:31:32.963Z,77.31
2023-08-01T00:32:32.961Z,77.21
2023-08-01T00:33:32.921Z,77.51
2023-08-01T00:34:32.920Z,77.82
2023-08-01T00:35:32.913Z,78.92
2023-08-01T00:36:32.911Z,79.63
2023-08-01T00:37:32.886Z,79.63
2023-08-01T00:38:32.846Z,79.43
2023-08-01T00:39:32.834Z,79.13
2023-08-01T00:40:32.810Z,77.95
2023-08-01T00:41:32.810Z,77.95
2023-08-01T00:42:32.817Z,78.56
2023-08-01T00:43:32.936Z,79.06
2023-08-01T00:44:32.764Z,80.47
2023-08-01T00:45:32.801Z,80.88
2023-08-01T00:46:32.742Z,81.02
2023-08-01T00:47:32.779Z,80.62
2023-08-01T00:48:32.749Z,79.71
2023-08-01T00:49:34.392Z,80.85
2023-08-01T00:50:32.676Z,81.26
2023-08-01T00:51:32.705Z,81.96
2023-08-01T00:52:32.650Z,81.90
2023-08-01T00:53:32.649Z,81.80
2023-08-01T00:54:32.646Z,81.50
2023-08-01T00:55:32.621Z,81.70
2023-08-01T00:56:32.612Z,81.90
2023-08-01T00:57:32.590Z,82.81
2023-08-01T00:58:32.591Z,83.32
2023-08-01T00:59:32.580Z,84.23
2023-08-01T01:00:32.539Z,84.23
2023-08-01T01:01:32.592Z,84.33
2023-08-01T01:02:32.698Z,84.29
2023-08-01T01:03:32.588Z,82.78
2023-08-01T01:04:32.497Z,81.26
2023-08-01T01:05:32.542Z,81.87
2023-08-01T01:06:32.470Z,82.07
2023-08-01T01:07:32.458Z,82.57
2023-08-01T01:08:32.521Z,82.57
2023-08-01T01:09:32.427Z,82.27
2023-08-01T01:10:32.433Z,82.87
2023-08-01T01:11:32.436Z,83.38
2023-08-01T01:12:32.417Z,82.87
2023-08-01T01:13:32.478Z,84.09
2023-08-01T01:14:32.381Z,84.59
2023-08-01T01:15:32.359Z,85.10
2023-08-01T01:16:32.350Z,85.19
2023-08-01T01:17:32.418Z,84.29
2023-08-01T01:18:32.312Z,83.88
2023-08-01T01:19:32.284Z,84.19
2023-08-01T01:20:32.268Z,84.39
2023-08-01T01:21:32.258Z,84.19
2023-08-01T01:22:32.271Z,84.39
2023-08-01T01:23:32.252Z,84.25
2023-08-01T01:24:32.222Z,84.35
2023-08-01T01:25:32.197Z,84.45
2023-08-01T01:26:32.189Z,84.35
2023-08-01T01:27:32.175Z,84.75
2023-08-01T01:28:32.209Z,83.84
2023-08-01T01:29:32.187Z,83.74
2023-08-01T01:30:32.140Z,83.95
2023-08-01T01:31:32.165Z,83.78
2023-08-01T01:32:32.144Z,83.88
2023-08-01T01:33:32.120Z,83.78
2023-08-01T01:34:32.116Z,83.68
2023-08-01T01:35:32.073Z,84.69
2023-08-01T01:36:32.052Z,84.69
2023-08-01T01:37:32.036Z,85.14
2023-08-01T01:38:32.037Z,85.03
2023-08-01T01:39:32.026Z,84.93
2023-08-01T01:40:32.020Z,84.83
2023-08-01T01:41:31.981Z,84.59
2023-08-01T01:42:31.997Z,85.10
2023-08-01T01:43:31.955Z,85.30
2023-08-01T01:44:31.954Z,85.70
2023-08-01T01:45:31.934Z,86.81
2023-08-01T01:46:31.969Z,86.71
2023-08-01T01:47:31.949Z,86.41
2023-08-01T01:48:31.888Z,86.21
2023-08-01T01:49:31.903Z,86.10
2023-08-01T01:50:31.866Z,86.41
2023-08-01T01:51:31.868Z,86.51
2023-08-01T01:52:31.908Z,86.41
2023-08-01T01:53:31.820Z,85.90
2023-08-01T01:54:31.807Z,85.30
2023-08-01T01:55:31.811Z,86.10
2023-08-01T01:56:31.779Z,85.80
2023-08-01T01:57:31.793Z,86.10
2023-08-01T01:58:31.743Z,85.80
2023-08-01T01:59:31.745Z,86.21
2023-08-01T02:00:31.746Z,86.41
2023-08-01T02:01:31.702Z,86.71
2023-08-01T02:02:31.753Z,86.00
2023-08-01T02:03:31.709Z,86.30
2023-08-01T02:04:31.723Z,86.10
2023-08-01T02:05:31.724Z,86.51
2023-08-01T02:06:31.640Z,86.91
2023-08-01T02:07:31.641Z,87.32
2023-08-01T02:08:31.641Z,87.52
2023-08-01T02:09:31.594Z,87.92
2023-08-01T02:10:31.593Z,87.96
2023-08-01T02:11:31.564Z,88.37
2023-08-01T02:12:31.557Z,88.57
2023-08-01T02:13:32.645Z,89.37
2023-08-01T02:14:31.564Z,88.77
2023-08-01T02:15:31.536Z,88.57
2023-08-01T02:16:31.518Z,89.07
2023-08-01T02:17:31.513Z,88.97
2023-08-01T02:18:31.482Z,89.28
2023-08-01T02:19:31.468Z,89.07
2023-08-01T02:20:31.488Z,89.58
2023-08-01T02:21:31.433Z,89.37
2023-08-01T02:22:31.412Z,88.77
2023-08-01T02:23:31.461Z,88.67
2023-08-01T02:24:31.397Z,88.17
2023-08-01T02:25:31.382Z,88.23
2023-08-01T02:26:31.414Z,88.57
2023-08-01T02:27:31.366Z,88.57
2023-08-01T02:28:31.368Z,88.23
2023-08-01T02:29:31.351Z,88.23
2023-08-01T02:30:31.301Z,87.01
2023-08-01T02:31:31.328Z,86.75
2023-08-01T02:32:31.662Z,86.35
2023-08-01T02:33:31.359Z,87.86
2023-08-01T02:34:31.833Z,88.37
2023-08-01T02:35:31.237Z,88.77
2023-08-01T02:36:31.237Z,89.07
2023-08-01T02:37:31.293Z,89.62
2023-08-01T02:38:31.210Z,89.83
2023-08-01T02:39:31.176Z,89.72
2023-08-01T02:40:31.163Z,89.62
2023-08-01T02:41:31.176Z,89.62
2023-08-01T02:42:31.135Z,89.72
2023-08-01T02:43:31.172Z,90.03
2023-08-01T02:44:31.112Z,89.92
2023-08-01T02:45:31.137Z,89.32
2023-08-01T02:46:31.081Z,90.23
2023-08-01T02:47:31.075Z,90.63
2023-08-01T02:48:31.068Z,90.73
2023-08-01T02:49:31.086Z,91.54
2023-08-01T02:50:31.045Z,91.44
2023-08-01T02:51:31.018Z,90.53
2023-08-01T02:52:31.016Z,87.19
2023-08-01T02:53:31.003Z,88.21
2023-08-01T02:54:30.968Z,89.62
2023-08-01T02:55:30.998Z,90.12
2023-08-01T02:56:30.935Z,90.23
2023-08-01T02:57:30.924Z,90.33
2023-08-01T02:58:30.916Z,91.14
2023-08-01T02:59:30.910Z,90.83
2023-08-01T03:00:30.886Z,91.03
2023-08-01T03:01:30.957Z,91.03
2023-08-01T03:02:30.896Z,91.34
2023-08-01T03:03:30.947Z,91.34
2023-08-01T03:04:45.182Z,90.83
2023-08-01T03:05:30.857Z,90.43
2023-08-01T03:06:30.808Z,90.63
2023-08-01T03:07:30.840Z,90.53
2023-08-01T03:08:30.792Z,90.43
2023-08-01T03:09:30.783Z,90.23
2023-08-01T03:10:36.328Z,90.43
2023-08-01T03:11:30.734Z,90.23
2023-08-01T03:12:30.749Z,90.33
2023-08-01T03:13:30.755Z,90.73
2023-08-01T03:14:30.712Z,91.14
2023-08-01T03:15:30.693Z,91.89
2023-08-01T03:16:30.677Z,91.49
2023-08-01T03:17:30.712Z,91.58
2023-08-01T03:18:30.646Z,91.89
2023-08-01T03:19:30.660Z,91.58
2023-08-01T03:20:30.629Z,91.38
2023-08-01T03:21:30.692Z,91.18
2023-08-01T03:22:30.597Z,91.38
2023-08-01T03:23:30.584Z,91.38
2023-08-01T03:24:30.616Z,91.58
2023-08-01T03:25:30.556Z,91.49
2023-08-01T03:26:30.534Z,91.18
2023-08-01T03:27:30.530Z,91.78
2023-08-01T03:28:30.512Z,92.40
2023-08-01T03:29:30.492Z,92.29
2023-08-01T03:30:30.517Z,91.99
2023-08-01T03:31:30.560Z,92.29
2023-08-01T03:32:30.498Z,92.09
2023-08-01T03:33:30.450Z,91.89
2023-08-01T03:34:30.550Z,91.99
2023-08-01T03:35:30.420Z,92.29
2023-08-01T03:36:30.464Z,92.29
2023-08-01T03:37:30.406Z,91.69
2023-08-01T03:38:30.373Z,91.08
2023-08-01T03:39:30.353Z,90.78
2023-08-01T03:40:30.363Z,91.38
2023-08-01T03:41:30.385Z,91.89
2023-08-01T03:42:30.353Z,91.89
2023-08-01T03:43:30.310Z,92.19
2023-08-01T03:44:30.289Z,92.40
2023-08-01T03:45:30.306Z,92.09
2023-08-01T03:46:30.251Z,91.38
2023-08-01T03:47:30.303Z,91.99
2023-08-01T03:48:30.230Z,91.99
2023-08-01T03:49:30.211Z,92.29
2023-08-01T03:50:30.215Z,92.49
2023-08-01T03:51:30.184Z,93.00
2023-08-01T03:52:30.182Z,92.60
2023-08-01T03:53:30.216Z,92.80
2023-08-01T03:54:30.168Z,93.00
2023-08-01T03:55:30.172Z,93.30
2023-08-01T03:56:30.162Z,93.15
2023-08-01T03:57:30.181Z,93.04
2023-08-01T03:58:30.135Z,92.84
2023-08-01T03:59:30.094Z,92.74
2023-08-01T04:00:30.064Z,92.24
2023-08-01T04:01:30.135Z,92.33
2023-08-01T04:02:30.092Z,93.24
2023-08-01T04:03:30.038Z,93.95
2023-08-01T04:04:30.047Z,93.95
2023-08-01T04:05:30.032Z,94.15
2023-08-01T04:06:30.002Z,94.15
2023-08-01T04:07:29.978Z,94.06
2023-08-01T04:08:29.960Z,94.15
2023-08-01T04:09:29.944Z,94.15
2023-08-01T04:10:29.948Z,94.26
2023-08-01T04:11:29.929Z,94.26
2023-08-01T04:12:29.912Z,94.15
2023-08-01T04:13:29.890Z,94.06
2023-08-01T04:14:29.863Z,93.71
2023-08-01T04:15:29.953Z,93.30
2023-08-01T04:16:29.846Z,93.00
2023-08-01T04:17:29.863Z,93.10
2023-08-01T04:18:29.828Z,93.20
2023-08-01T04:19:29.805Z,93.30
2023-08-01T04:20:29.799Z,93.24
2023-08-01T04:21:29.824Z,93.44
2023-08-01T04:22:29.770Z,94.26
2023-08-01T04:23:29.765Z,93.85
2023-08-01T04:24:29.754Z,94.06
2023-08-01T04:25:29.720Z,94.15
2023-08-01T04:26:29.717Z,94.56
2023-08-01T04:27:29.767Z,94.50
2023-08-01T04:28:29.753Z,94.10
2023-08-01T04:29:29.711Z,93.70
2023-08-01T04:30:29.676Z,93.49
2023-08-01T04:31:29.727Z,92.38
2023-08-01T04:32:29.691Z,91.67
2023-08-01T04:33:29.640Z,91.32
2023-08-01T04:34:29.597Z,91.83
2023-08-01T04:35:29.600Z,91.83
2023-08-01T04:36:29.564Z,91.73
2023-08-01T04:37:29.561Z,91.42
2023-08-01T04:38:29.584Z,91.12
2023-08-01T04:39:29.586Z,90.92
2023-08-01T04:40:29.522Z,91.12
2023-08-01T04:41:29.504Z,91.42
2023-08-01T04:42:29.488Z,91.73
2023-08-01T04:43:29.474Z,89.10
2023-08-01T04:44:29.506Z,90.27
2023-08-01T04:45:29.477Z,91.49
2023-08-01T04:46:29.494Z,91.78
2023-08-01T04:47:29.467Z,92.09
2023-08-01T04:48:29.420Z,92.19
2023-08-01T04:49:29.412Z,92.29
2023-08-01T04:50:29.407Z,91.32
2023-08-01T04:51:29.376Z,91.58
2023-08-01T04:52:29.352Z,92.19
2023-08-01T04:53:29.343Z,92.40
2023-08-01T04:54:29.325Z,92.40
2023-08-01T04:55:29.316Z,90.88
2023-08-01T04:56:29.339Z,90.98
2023-08-01T04:57:29.282Z,91.28
2023-08-01T04:58:29.265Z,91.58
2023-08-01T04:59:29.330Z,91.38
2023-08-01T05:00:29.276Z,91.49
2023-08-01T05:01:29.264Z,91.69
2023-08-01T05:02:29.268Z,91.99
2023-08-01T05:03:29.321Z,91.49
2023-08-01T05:04:29.186Z,91.18
2023-08-01T05:05:29.171Z,91.18
2023-08-01T05:06:29.229Z,90.98
2023-08-01T05:07:29.196Z,90.98
2023-08-01T05:08:29.152Z,91.58
2023-08-01T05:09:29.145Z,91.99
2023-08-01T05:10:29.107Z,91.99
2023-08-01T05:11:29.100Z,93.00
2023-08-01T05:12:29.118Z,93.55
2023-08-01T05:13:29.133Z,93.65
2023-08-01T05:14:29.078Z,93.75
2023-08-01T05:15:31.616Z,93.65
2023-08-01T05:16:29.082Z,93.55
2023-08-01T05:17:29.022Z,93.60
2023-08-01T05:18:29.013Z,93.40
2023-08-01T05:19:29.012Z,93.40
2023-08-01T05:20:28.998Z,93.20
2023-08-01T05:21:28.959Z,93.60
2023-08-01T05:22:28.952Z,93.81
2023-08-01T05:23:28.980Z,94.01
2023-08-01T05:24:28.945Z,94.01
2023-08-01T05:25:28.904Z,93.91
2023-08-01T05:26:28.898Z,94.42
2023-08-01T05:27:28.895Z,94.21
2023-08-01T05:28:28.941Z,93.91
2023-08-01T05:29:28.910Z,94.21
2023-08-01T05:30:28.847Z,94.51
2023-08-01T05:31:28.883Z,94.51
2023-08-01T05:32:28.827Z,94.42
2023-08-01T05:33:28.797Z,93.00
2023-08-01T05:34:28.798Z,92.80
2023-08-01T05:35:28.848Z,93.71
2023-08-01T05:36:28.760Z,93.60
2023-08-01T05:37:28.761Z,94.11
2023-08-01T05:38:28.756Z,94.76
2023-08-01T05:39:28.794Z,95.47
2023-08-01T05:40:28.701Z,95.47
2023-08-01T05:41:28.712Z,95.47
2023-08-01T05:42:28.662Z,95.67
2023-08-01T05:43:28.665Z,95.37
2023-08-01T05:44:28.653Z,95.17
2023-08-01T05:45:28.664Z,95.27
2023-08-01T05:46:28.695Z,95.37
2023-08-01T05:47:28.709Z,95.67
2023-08-01T05:48:28.600Z,95.73
2023-08-01T05:49:28.587Z,95.73
2023-08-01T05:50:28.553Z,95.43
2023-08-01T05:51:28.575Z,95.12
2023-08-01T05:52:28.627Z,94.82
2023-08-01T05:53:28.556Z,94.82
2023-08-01T05:54:28.525Z,95.22
2023-08-01T05:55:28.531Z,95.22
2023-08-01T05:56:28.528Z,94.82
2023-08-01T05:57:28.525Z,94.82
2023-08-01T05:58:29.894Z,94.76
2023-08-01T05:59:28.480Z,94.76
2023-08-01T06:00:28.430Z,94.66
2023-08-01T06:01:28.468Z,94.96
2023-08-01T06:02:28.492Z,94.76
2023-08-01T06:03:28.637Z,94.76
2023-08-01T06:04:28.428Z,94.76
2023-08-01T06:05:28.361Z,94.56
2023-08-01T06:06:28.391Z,94.36
2023-08-01T06:07:28.337Z,94.26
2023-08-01T06:08:28.353Z,94.26
2023-08-01T06:09:28.308Z,94.26
2023-08-01T06:10:28.375Z,94.56
2023-08-01T06:11:28.293Z,94.51
2023-08-01T06:12:28.277Z,94.62
2023-08-01T06:13:28.255Z,94.72
2023-08-01T06:14:28.263Z,95.02
2023-08-01T06:15:28.220Z,94.82
2023-08-01T06:16:28.459Z,94.82
2023-08-01T06:17:28.229Z,95.12
2023-08-01T06:18:28.193Z,95.02
2023-08-01T06:19:28.194Z,95.22
2023-08-01T06:20:28.238Z,95.12
2023-08-01T06:21:28.172Z,95.12
2023-08-01T06:22:28.149Z,95.02
2023-08-01T06:23:28.121Z,94.82
2023-08-01T06:24:28.206Z,94.72
2023-08-01T06:25:28.163Z,94.72
2023-08-01T06:26:28.068Z,94.82
2023-08-01T06:27:28.044Z,94.92
2023-08-01T06:28:28.104Z,95.22
2023-08-01T06:29:28.034Z,95.02
2023-08-01T06:30:28.069Z,94.92
2023-08-01T06:31:28.019Z,94.62
2023-08-01T06:32:27.989Z,94.72
2023-08-01T06:33:27.982Z,94.82
2023-08-01T06:34:27.970Z,95.32
2023-08-01T06:35:27.936Z,95.53
2023-08-01T06:36:27.983Z,95.63
2023-08-01T06:37:27.934Z,95.73
2023-08-01T06:38:27.911Z,95.93
2023-08-01T06:39:27.886Z,95.73
2023-08-01T06:40:27.890Z,95.83
2023-08-01T06:41:27.865Z,95.53
2023-08-01T06:42:27.956Z,95.22
2023-08-01T06:43:27.857Z,95.43
2023-08-01T06:44:27.862Z,95.22
2023-08-01T06:45:27.817Z,95.53
2023-08-01T06:46:27.850Z,95.78
2023-08-01T06:47:27.840Z,95.98
2023-08-01T06:48:27.786Z,96.18
2023-08-01T06:49:27.761Z,96.08
2023-08-01T06:50:27.774Z,96.18
2023-08-01T06:51:27.735Z,96.38
2023-08-01T06:52:27.745Z,96.69
2023-08-01T06:53:27.915Z,96.78
2023-08-01T06:54:27.717Z,96.48
2023-08-01T06:55:27.686Z,96.38
2023-08-01T06:56:27.658Z,96.78
2023-08-01T06:57:27.752Z,96.83
2023-08-01T06:58:27.674Z,97.03
2023-08-01T06:59:27.633Z,97.09
2023-08-01T07:00:27.639Z,96.98
2023-08-01T07:01:27.636Z,96.58
2023-08-01T07:02:27.600Z,96.69
2023-08-01T07:03:27.674Z,96.69
2023-08-01T07:04:27.587Z,96.58
2023-08-01T07:05:27.552Z,96.48
2023-08-01T07:06:27.528Z,95.78
2023-08-01T07:07:27.525Z,95.87
2023-08-01T07:08:27.512Z,94.66
2023-08-01T07:09:27.490Z,94.92
2023-08-01T07:10:27.504Z,94.62
2023-08-01T07:11:27.489Z,94.51
2023-08-01T07:12:27.492Z,94.62
2023-08-01T07:13:27.430Z,94.62
2023-08-01T07:14:27.435Z,94.82
2023-08-01T07:15:27.387Z,95.12
2023-08-01T07:16:27.465Z,95.28
2023-08-01T07:17:27.406Z,95.38
2023-08-01T07:18:27.371Z,95.58
2023-08-01T07:19:27.348Z,95.98
2023-08-01T07:20:27.336Z,95.98
2023-08-01T07:21:27.382Z,95.89
2023-08-01T07:22:27.326Z,95.68
2023-08-01T07:23:27.325Z,95.38
2023-08-01T07:24:29.314Z,94.67
2023-08-01T07:25:27.254Z,94.57
2023-08-01T07:26:27.257Z,94.27
2023-08-01T07:27:27.283Z,94.17
2023-08-01T07:28:27.283Z,94.17
2023-08-01T07:29:27.344Z,94.27
2023-08-01T07:30:27.218Z,94.47
2023-08-01T07:31:27.188Z,94.17
2023-08-01T07:32:27.206Z,94.37
2023-08-01T07:33:27.180Z,94.47
2023-08-01T07:34:27.176Z,94.78
2023-08-01T07:35:27.127Z,94.78
2023-08-01T07:36:27.097Z,94.87
2023-08-01T07:37:27.110Z,94.78
2023-08-01T07:38:27.098Z,94.87
2023-08-01T07:39:27.107Z,95.07
2023-08-01T07:40:27.055Z,95.07
2023-08-01T07:41:27.081Z,95.18
2023-08-01T07:42:27.049Z,95.68
2023-08-01T07:43:27.020Z,95.68
2023-08-01T07:44:27.006Z,95.68
2023-08-01T07:45:27.029Z,96.29
2023-08-01T07:46:27.003Z,96.29
2023-08-01T07:47:27.030Z,96.09
2023-08-01T07:48:27.064Z,95.89
2023-08-01T07:49:26.935Z,95.78
2023-08-01T07:50:26.971Z,96.09
2023-08-01T07:51:26.932Z,96.39
2023-08-01T07:52:26.910Z,96.39
2023-08-01T07:53:26.893Z,96.49
2023-08-01T07:54:26.918Z,96.29
2023-08-01T07:55:26.849Z,95.68
2023-08-01T07:56:26.858Z,95.38
2023-08-01T07:57:26.861Z,95.28
2023-08-01T07:58:26.808Z,94.98
2023-08-01T07:59:26.793Z,94.87
2023-08-01T08:00:26.778Z,95.28
2023-08-01T08:01:26.804Z,95.07
2023-08-01T08:02:26.765Z,94.87
2023-08-01T08:03:26.769Z,94.87
2023-08-01T08:04:26.732Z,95.18
2023-08-01T08:05:26.737Z,95.18
2023-08-01T08:06:26.699Z,95.18
2023-08-01T08:07:26.706Z,94.67
2023-08-01T08:08:26.667Z,94.51
2023-08-01T08:09:26.700Z,94.82
2023-08-01T08:10:26.648Z,95.12
2023-08-01T08:11:26.645Z,95.43
2023-08-01T08:12:26.653Z,95.53
2023-08-01T08:13:26.599Z,95.73
2023-08-01T08:14:26.602Z,95.73
2023-08-01T08:15:26.590Z,95.83
2023-08-01T08:16:26.675Z,96.13
2023-08-01T08:17:26.547Z,96.13
2023-08-01T08:18:26.544Z,96.03
2023-08-01T08:19:26.516Z,96.03
2023-08-01T08:20:26.552Z,95.83
2023-08-01T08:21:26.562Z,95.93
2023-08-01T08:22:26.474Z,96.03
2023-08-01T08:23:26.476Z,95.98
2023-08-01T08:24:26.481Z,96.19
2023-08-01T08:25:26.522Z,96.29
2023-08-01T08:26:26.439Z,95.89
2023-08-01T08:27:26.421Z,95.58
2023-08-01T08:28:26.537Z,95.58
2023-08-01T08:29:26.389Z,95.78
2023-08-01T08:30:26.374Z,96.19
2023-08-01T08:31:26.406Z,96.09
2023-08-01T08:32:26.437Z,95.98
2023-08-01T08:33:26.368Z,96.19
2023-08-01T08:34:26.314Z,95.98
2023-08-01T08:35:26.310Z,95.89
2023-08-01T08:36:26.321Z,95.98
2023-08-01T08:37:26.293Z,95.98
2023-08-01T08:38:26.302Z,95.98
2023-08-01T08:39:26.274Z,95.68
2023-08-01T08:40:26.235Z,95.48
2023-08-01T08:41:26.214Z,95.68
2023-08-01T08:42:26.222Z,95.78
2023-08-01T08:43:26.197Z,95.89
2023-08-01T08:44:26.228Z,95.89
2023-08-01T08:45:26.241Z,95.89
2023-08-01T08:46:26.184Z,95.58
2023-08-01T08:47:26.171Z,95.38
2023-08-01T08:48:26.156Z,95.68
2023-08-01T08:49:26.138Z,96.09
2023-08-01T08:50:26.172Z,95.38
2023-08-01T08:51:27.089Z,94.47
2023-08-01T08:52:26.110Z,94.47
2023-08-01T08:53:26.057Z,94.67
2023-08-01T08:54:26.076Z,95.07
2023-08-01T08:55:26.041Z,95.18
2023-08-01T08:56:26.095Z,95.78
2023-08-01T08:57:26.015Z,95.98
2023-08-01T08:58:26.015Z,96.09
2023-08-01T08:59:25.968Z,95.68
2023-08-01T09:00:25.984Z,95.58
2023-08-01T09:01:25.988Z,95.84
2023-08-01T09:02:25.962Z,96.55
2023-08-01T09:03:25.929Z,96.55
2023-08-01T09:04:25.962Z,96.55
2023-08-01T09:05:25.922Z,96.04
2023-08-01T09:06:25.895Z,95.74
2023-08-01T09:07:25.945Z,95.70
2023-08-01T09:08:25.849Z,95.59
2023-08-01T09:09:25.847Z,95.49
2023-08-01T09:10:25.826Z,95.39
2023-08-01T09:11:25.824Z,94.89
2023-08-01T09:12:25.810Z,93.77
2023-08-01T09:13:25.833Z,92.66
2023-08-01T09:14:25.762Z,93.68
2023-08-01T09:15:25.769Z,93.48
2023-08-01T09:16:25.769Z,93.48
2023-08-01T09:17:25.794Z,93.77
2023-08-01T09:18:25.719Z,93.98
2023-08-01T09:19:25.735Z,94.68
2023-08-01T09:20:25.698Z,94.89
2023-08-01T09:21:25.701Z,94.99
2023-08-01T09:22:25.681Z,95.09
2023-08-01T09:23:25.654Z,95.29
2023-08-01T09:24:25.646Z,95.39
2023-08-01T09:25:25.654Z,95.39
2023-08-01T09:26:25.616Z,94.59
2023-08-01T09:27:25.599Z,93.98
2023-08-01T09:28:25.593Z,93.77
2023-08-01T09:29:25.601Z,93.68
2023-08-01T09:30:25.560Z,93.57
2023-08-01T09:31:25.611Z,93.37
2023-08-01T09:32:25.544Z,94.38
2023-08-01T09:33:25.545Z,94.48
2023-08-01T09:34:25.528Z,94.79
2023-08-01T09:35:25.516Z,94.48
2023-08-01T09:36:25.477Z,92.77
2023-08-01T09:37:25.465Z,93.07
2023-08-01T09:38:25.437Z,93.37
2023-08-01T09:39:25.433Z,93.93
2023-08-01T09:40:25.418Z,94.34
2023-08-01T09:41:25.433Z,94.54
2023-08-01T09:42:25.379Z,94.24
2023-08-01T09:43:25.373Z,94.24
2023-08-01T09:44:25.350Z,94.94
2023-08-01T09:45:25.352Z,95.04
2023-08-01T09:46:25.342Z,94.13
2023-08-01T09:47:25.475Z,94.24
2023-08-01T09:48:25.310Z,93.43
2023-08-01T09:49:25.292Z,92.62
2023-08-01T09:50:25.283Z,93.02
2023-08-01T09:51:25.273Z,93.33
2023-08-01T09:52:25.270Z,93.63
2023-08-01T09:53:25.296Z,94.34
2023-08-01T09:54:25.320Z,94.74
2023-08-01T09:55:25.218Z,95.14
2023-08-01T09:56:25.180Z,95.25
2023-08-01T09:57:25.184Z,95.35
2023-08-01T09:58:25.190Z,95.25
2023-08-01T09:59:25.167Z,94.84
2023-08-01T10:00:25.160Z,94.84
2023-08-01T10:01:25.195Z,94.24
2023-08-01T10:02:25.162Z,93.43
2023-08-01T10:03:25.176Z,92.82
2023-08-01T10:04:25.105Z,93.23
2023-08-01T10:05:25.070Z,94.04
2023-08-01T10:06:25.061Z,94.84
2023-08-01T10:07:25.045Z,95.35
2023-08-01T10:08:25.071Z,94.68
2023-08-01T10:09:25.022Z,94.99
2023-08-01T10:10:25.028Z,94.99
2023-08-01T10:11:24.996Z,94.89
2023-08-01T10:12:24.975Z,95.09
2023-08-01T10:13:24.958Z,95.09
2023-08-01T10:14:24.938Z,94.38
2023-08-01T10:15:25.078Z,94.18
2023-08-01T10:16:24.972Z,93.57
2023-08-01T10:17:24.954Z,92.66
2023-08-01T10:18:24.943Z,92.66
2023-08-01T10:19:24.881Z,90.45
2023-08-01T10:20:24.875Z,91.05
2023-08-01T10:21:24.878Z,91.15
2023-08-01T10:22:24.841Z,91.86
2023-08-01T10:23:24.819Z,91.15
2023-08-01T10:24:24.831Z,90.55
2023-08-01T10:25:24.782Z,90.55
2023-08-01T10:26:24.782Z,90.75
2023-08-01T10:27:25.176Z,91.46
2023-08-01T10:28:24.760Z,92.06
2023-08-01T10:29:24.776Z,91.46
2023-08-01T10:30:24.741Z,91.35
2023-08-01T10:31:24.738Z,91.15
2023-08-01T10:32:24.708Z,90.95
2023-08-01T10:33:24.722Z,90.95
2023-08-01T10:34:24.673Z,91.25
2023-08-01T10:35:24.728Z,91.55
2023-08-01T10:36:24.640Z,92.26
2023-08-01T10:37:24.657Z,92.36
2023-08-01T10:38:24.650Z,92.36
2023-08-01T10:39:24.673Z,92.72
2023-08-01T10:40:24.585Z,93.02
2023-08-01T10:41:24.564Z,93.13
2023-08-01T10:42:24.551Z,92.93
2023-08-01T10:43:24.538Z,93.53
2023-08-01T10:44:24.528Z,93.73
2023-08-01T10:45:24.562Z,93.53
2023-08-01T10:46:24.545Z,94.04
2023-08-01T10:47:24.499Z,94.24
2023-08-01T10:48:24.471Z,94.44
2023-08-01T10:49:24.478Z,94.54
2023-08-01T10:50:24.456Z,94.54
2023-08-01T10:51:24.462Z,94.64
2023-08-01T10:52:24.449Z,94.59
2023-08-01T10:53:24.409Z,95.10
2023-08-01T10:54:24.470Z,94.90
2023-08-01T10:55:24.388Z,94.59
2023-08-01T10:56:24.356Z,94.09
2023-08-01T10:57:24.427Z,93.89
2023-08-01T10:58:24.326Z,94.19
2023-08-01T10:59:24.331Z,94.80
2023-08-01T11:00:24.316Z,95.10
2023-08-01T11:01:24.320Z,93.29
2023-08-01T11:02:24.352Z,93.29
2023-08-01T11:03:24.333Z,93.69
2023-08-01T11:04:24.271Z,93.69
2023-08-01T11:05:24.273Z,93.54
2023-08-01T11:06:24.228Z,94.65
2023-08-01T11:07:24.261Z,94.95
2023-08-01T11:08:24.206Z,94.95
2023-08-01T11:09:24.200Z,94.95
2023-08-01T11:10:24.188Z,94.25
2023-08-01T11:11:24.183Z,94.35
2023-08-01T11:12:24.139Z,94.75
2023-08-01T11:13:24.171Z,94.35
2023-08-01T11:14:24.153Z,93.85
2023-08-01T11:15:24.110Z,94.05
2023-08-01T11:16:24.110Z,94.10
2023-08-01T11:17:24.168Z,94.20
2023-08-01T11:18:24.064Z,94.00
2023-08-01T11:19:24.078Z,94.10
2023-08-01T11:20:24.047Z,93.90
2023-08-01T11:21:24.035Z,94.10
2023-08-01T11:22:24.015Z,94.10
2023-08-01T11:23:23.991Z,94.51
2023-08-01T11:24:23.968Z,94.31
2023-08-01T11:25:23.985Z,93.30
2023-08-01T11:26:23.964Z,93.10
2023-08-01T11:27:23.990Z,93.19
2023-08-01T11:28:24.039Z,93.19
2023-08-01T11:29:23.913Z,93.40
2023-08-01T11:30:23.911Z,94.10
2023-08-01T11:31:23.941Z,93.19
2023-08-01T11:32:23.905Z,92.90
2023-08-01T11:33:23.893Z,92.95
2023-08-01T11:34:23.850Z,92.95
2023-08-01T11:35:23.849Z,92.25
2023-08-01T11:36:23.815Z,92.39
2023-08-01T11:37:23.864Z,92.25
2023-08-01T11:38:23.795Z,91.78
2023-08-01T11:39:23.938Z,91.99
2023-08-01T11:40:23.756Z,92.59
2023-08-01T11:41:23.744Z,92.79
2023-08-01T11:42:23.734Z,92.79
2023-08-01T11:43:23.762Z,93.44
2023-08-01T11:44:23.708Z,93.34
2023-08-01T11:45:23.715Z,94.05
2023-08-01T11:46:23.701Z,93.65
2023-08-01T11:47:23.692Z,92.83
2023-08-01T11:48:23.662Z,92.54
2023-08-01T11:49:23.675Z,93.04
2023-08-01T11:50:23.638Z,93.85
2023-08-01T11:51:25.232Z,94.45
2023-08-01T11:52:23.596Z,94.45
2023-08-01T11:53:23.636Z,94.85
2023-08-01T11:54:23.616Z,95.06
2023-08-01T11:55:23.643Z,95.36
2023-08-01T11:56:23.573Z,95.15
2023-08-01T11:57:23.540Z,95.15
2023-08-01T11:58:23.585Z,94.95
2023-08-01T11:59:23.511Z,94.55
2023-08-01T12:00:23.548Z,94.70
2023-08-01T12:01:23.554Z,95.10
2023-08-01T12:02:23.576Z,95.30
2023-08-01T12:03:25.097Z,95.81
2023-08-01T12:04:23.460Z,96.01
2023-08-01T12:05:23.458Z,96.31
2023-08-01T12:06:23.415Z,96.31
2023-08-01T12:07:23.400Z,95.70
2023-08-01T12:08:23.383Z,95.40
2023-08-01T12:09:25.098Z,95.30
2023-08-01T12:10:23.357Z,95.40
2023-08-01T12:11:23.377Z,95.61
2023-08-01T12:12:23.323Z,96.11
2023-08-01T12:13:23.321Z,96.61
2023-08-01T12:14:23.364Z,96.61
2023-08-01T12:15:25.036Z,96.41
2023-08-01T12:16:23.273Z,96.56
2023-08-01T12:17:23.417Z,96.66
2023-08-01T12:18:44.680Z,97.16
2023-08-01T12:19:23.257Z,97.11
2023-08-01T12:20:23.273Z,97.21
2023-08-01T12:21:25.147Z,97.67
2023-08-01T12:22:23.195Z,98.07
2023-08-01T12:23:23.180Z,98.17
2023-08-01T12:24:23.220Z,95.85
2023-08-01T12:25:23.160Z,95.35
2023-08-01T12:26:23.165Z,95.14
2023-08-01T12:27:25.194Z,94.64
2023-08-01T12:28:23.126Z,94.04
2023-08-01T12:29:23.156Z,94.24
2023-08-01T12:30:23.076Z,93.84
2023-08-01T12:31:23.186Z,93.33
2023-08-01T12:32:23.092Z,94.84
2023-08-01T12:33:24.390Z,94.64
2023-08-01T12:34:23.023Z,95.10
2023-08-01T12:35:23.040Z,95.70
2023-08-01T12:36:23.018Z,95.61
2023-08-01T12:37:23.000Z,95.10
2023-08-01T12:38:22.993Z,94.90
2023-08-01T12:39:24.114Z,94.09
2023-08-01T12:40:22.973Z,94.19
2023-08-01T12:41:22.933Z,93.89
2023-08-01T12:42:22.908Z,93.79
2023-08-01T12:43:22.999Z,94.09
2023-08-01T12:44:22.877Z,93.49
2023-08-01T12:45:22.905Z,93.24
2023-08-01T12:46:22.944Z,93.95
2023-08-01T12:47:22.860Z,92.33
2023-08-01T12:48:22.832Z,91.73
2023-08-01T12:49:22.827Z,91.33
2023-08-01T12:50:22.807Z,91.33
2023-08-01T12:51:22.790Z,92.23
2023-08-01T12:52:22.773Z,90.72